Cantillana, Spain
Current Conditions -  °F | °C
As of 6:00 AM on Saturday 20 Dec 2014 (Local Time) from LEZL Reporting Station
Moderate Fog Moderate Fog  
Wind Chill: 46°   Ceiling: 100
Heat Index: 46°   Visibility: 0.31mi
Dew Point: 45°   Wind: 3mph
Humidity: 93%   Direction: 50°NE
Pressure: 30.42"   Gusts: NA
Location:  37.61°N, 5.82°W
Report Text: LEZL 200500Z 05003KT 020V080 0500 R27/0900U FG VV001 08/07 Q1030 NOSIG
Loading
Personal Weather Stations






























Interactive Weather Map New forecast layout! Learn more

10-Day Weather Forecast

Advertisements
Track Severe Weather on mobile